sensor_id;sensor_type;location;lat;lon;timestamp;temperature;humidity
75648;DHT22;66269;51.466;7.260;2023-02-28T00:00:03;22.50;30.70
75648;DHT22;66269;51.466;7.260;2023-02-28T00:02:39;22.40;30.70
75648;DHT22;66269;51.466;7.260;2023-02-28T00:05:05;22.40;30.50
75648;DHT22;66269;51.466;7.260;2023-02-28T00:07:31;22.40;30.50
75648;DHT22;66269;51.466;7.260;2023-02-28T00:09:57;22.40;30.80
75648;DHT22;66269;51.466;7.260;2023-02-28T00:12:23;22.40;30.70
75648;DHT22;66269;51.466;7.260;2023-02-28T00:14:50;22.40;30.60
75648;DHT22;66269;51.466;7.260;2023-02-28T00:17:15;22.40;30.60
75648;DHT22;66269;51.466;7.260;2023-02-28T00:19:43;22.50;30.60
75648;DHT22;66269;51.466;7.260;2023-02-28T00:22:08;22.40;30.60
75648;DHT22;66269;51.466;7.260;2023-02-28T00:24:34;22.40;30.70
75648;DHT22;66269;51.466;7.260;2023-02-28T00:26:59;22.30;30.60
75648;DHT22;66269;51.466;7.260;2023-02-28T00:29:25;22.30;30.50
75648;DHT22;66269;51.466;7.260;2023-02-28T00:31:50;22.30;30.50
75648;DHT22;66269;51.466;7.260;2023-02-28T00:34:16;22.50;30.60
75648;DHT22;66269;51.466;7.260;2023-02-28T00:36:41;22.30;30.70
75648;DHT22;66269;51.466;7.260;2023-02-28T00:39:11;22.40;30.70
75648;DHT22;66269;51.466;7.260;2023-02-28T00:41:36;22.40;30.60
75648;DHT22;66269;51.466;7.260;2023-02-28T00:44:02;22.30;30.70
75648;DHT22;66269;51.466;7.260;2023-02-28T00:46:27;22.40;30.70
75648;DHT22;66269;51.466;7.260;2023-02-28T00:48:53;22.30;30.50
75648;DHT22;66269;51.466;7.260;2023-02-28T00:51:19;22.40;30.40
75648;DHT22;66269;51.466;7.260;2023-02-28T00:53:44;22.30;31.00
75648;DHT22;66269;51.466;7.260;2023-02-28T00:56:10;22.30;30.60
75648;DHT22;66269;51.466;7.260;2023-02-28T00:58:35;22.30;30.70
75648;DHT22;66269;51.466;7.260;2023-02-28T01:01:01;22.30;30.60
75648;DHT22;66269;51.466;7.260;2023-02-28T01:03:27;22.30;30.50
75648;DHT22;66269;51.466;7.260;2023-02-28T01:05:52;22.40;31.00
75648;DHT22;66269;51.466;7.260;2023-02-28T01:08:22;22.30;30.90
75648;DHT22;66269;51.466;7.260;2023-02-28T01:10:47;22.40;30.40
75648;DHT22;66269;51.466;7.260;2023-02-28T01:13:14;22.30;31.10
75648;DHT22;66269;51.466;7.260;2023-02-28T01:15:43;22.30;30.60
75648;DHT22;66269;51.466;7.260;2023-02-28T01:18:10;22.30;30.60
75648;DHT22;66269;51.466;7.260;2023-02-28T01:20:39;22.20;30.70
75648;DHT22;66269;51.466;7.260;2023-02-28T01:23:04;22.30;31.00
75648;DHT22;66269;51.466;7.260;2023-02-28T01:25:30;22.30;30.60
75648;DHT22;66269;51.466;7.260;2023-02-28T01:27:55;22.30;30.90
75648;DHT22;66269;51.466;7.260;2023-02-28T01:30:21;22.20;30.70
75648;DHT22;66269;51.466;7.260;2023-02-28T01:32:46;22.30;30.80
75648;DHT22;66269;51.466;7.260;2023-02-28T01:35:12;22.20;30.70
75648;DHT22;66269;51.466;7.260;2023-02-28T01:37:37;22.20;31.10
75648;DHT22;66269;51.466;7.260;2023-02-28T01:40:03;22.30;30.80
75648;DHT22;66269;51.466;7.260;2023-02-28T01:42:29;22.30;30.90
75648;DHT22;66269;51.466;7.260;2023-02-28T01:47:27;22.20;30.60
75648;DHT22;66269;51.466;7.260;2023-02-28T01:49:54;22.20;30.70
75648;DHT22;66269;51.466;7.260;2023-02-28T01:52:20;22.30;30.80
75648;DHT22;66269;51.466;7.260;2023-02-28T01:54:54;22.20;31.00
75648;DHT22;66269;51.466;7.260;2023-02-28T01:57:25;22.20;30.80
75648;DHT22;66269;51.466;7.260;2023-02-28T02:00:00;22.20;30.80
75648;DHT22;66269;51.466;7.260;2023-02-28T02:02:30;22.20;30.80
75648;DHT22;66269;51.466;7.260;2023-02-28T02:05:08;22.20;31.00
75648;DHT22;66269;51.466;7.260;2023-02-28T02:07:37;22.20;31.00
75648;DHT22;66269;51.466;7.260;2023-02-28T02:10:17;22.20;30.90
75648;DHT22;66269;51.466;7.260;2023-02-28T02:13:11;22.20;30.90
75648;DHT22;66269;51.466;7.260;2023-02-28T02:16:04;22.20;31.10
75648;DHT22;66269;51.466;7.260;2023-02-28T02:18:55;22.20;30.90
75648;DHT22;66269;51.466;7.260;2023-02-28T02:21:59;22.20;30.80
75648;DHT22;66269;51.466;7.260;2023-02-28T02:33:22;22.10;31.10
75648;DHT22;66269;51.466;7.260;2023-02-28T02:36:00;22.20;31.10
75648;DHT22;66269;51.466;7.260;2023-02-28T02:38:39;22.10;31.00
75648;DHT22;66269;51.466;7.260;2023-02-28T02:41:46;22.10;31.20
75648;DHT22;66269;51.466;7.260;2023-02-28T02:44:21;22.10;31.00
75648;DHT22;66269;51.466;7.260;2023-02-28T02:46:51;22.10;30.90
75648;DHT22;66269;51.466;7.260;2023-02-28T02:49:23;22.10;30.90
75648;DHT22;66269;51.466;7.260;2023-02-28T02:51:49;22.10;31.00
75648;DHT22;66269;51.466;7.260;2023-02-28T02:54:27;22.10;31.30
75648;DHT22;66269;51.466;7.260;2023-02-28T02:56:57;22.10;30.90
75648;DHT22;66269;51.466;7.260;2023-02-28T02:59:25;22.10;31.00
75648;DHT22;66269;51.466;7.260;2023-02-28T03:01:56;22.10;30.90
75648;DHT22;66269;51.466;7.260;2023-02-28T03:04:24;22.00;30.90
75648;DHT22;66269;51.466;7.260;2023-02-28T03:06:51;22.10;30.80
75648;DHT22;66269;51.466;7.260;2023-02-28T03:09:21;22.10;31.10
75648;DHT22;66269;51.466;7.260;2023-02-28T03:11:48;22.10;30.90
75648;DHT22;66269;51.466;7.260;2023-02-28T03:14:43;22.10;31.00
75648;DHT22;66269;51.466;7.260;2023-02-28T03:17:47;22.10;31.00
75648;DHT22;66269;51.466;7.260;2023-02-28T03:26:04;22.00;30.90
75648;DHT22;66269;51.466;7.260;2023-02-28T03:28:41;22.10;31.10
75648;DHT22;66269;51.466;7.260;2023-02-28T03:33:51;22.00;31.20
75648;DHT22;66269;51.466;7.260;2023-02-28T03:36:28;22.00;31.10
75648;DHT22;66269;51.466;7.260;2023-02-28T03:38:58;22.00;31.30
75648;DHT22;66269;51.466;7.260;2023-02-28T03:41:33;22.10;31.20
75648;DHT22;66269;51.466;7.260;2023-02-28T03:44:05;22.10;30.90
75648;DHT22;66269;51.466;7.260;2023-02-28T03:46:34;22.00;30.90
75648;DHT22;66269;51.466;7.260;2023-02-28T03:49:06;22.10;31.30
75648;DHT22;66269;51.466;7.260;2023-02-28T03:51:36;22.10;31.10
75648;DHT22;66269;51.466;7.260;2023-02-28T03:54:11;22.00;30.90
75648;DHT22;66269;51.466;7.260;2023-02-28T03:57:22;22.10;31.20
75648;DHT22;66269;51.466;7.260;2023-02-28T03:59:43;22.10;31.10
75648;DHT22;66269;51.466;7.260;2023-02-28T04:02:09;22.00;31.00
75648;DHT22;66269;51.466;7.260;2023-02-28T04:04:35;22.00;31.10
75648;DHT22;66269;51.466;7.260;2023-02-28T04:07:04;21.90;31.20
75648;DHT22;66269;51.466;7.260;2023-02-28T04:09:31;22.00;31.00
75648;DHT22;66269;51.466;7.260;2023-02-28T04:11:56;22.00;31.20
75648;DHT22;66269;51.466;7.260;2023-02-28T04:14:22;21.90;31.10
75648;DHT22;66269;51.466;7.260;2023-02-28T04:16:48;22.00;31.40
75648;DHT22;66269;51.466;7.260;2023-02-28T04:19:14;21.90;31.30
75648;DHT22;66269;51.466;7.260;2023-02-28T04:21:42;22.00;31.20
75648;DHT22;66269;51.466;7.260;2023-02-28T04:24:10;21.90;31.10
75648;DHT22;66269;51.466;7.260;2023-02-28T04:26:41;22.10;31.00
75648;DHT22;66269;51.466;7.260;2023-02-28T04:29:08;21.90;31.00
75648;DHT22;66269;51.466;7.260;2023-02-28T04:31:34;22.00;31.20
75648;DHT22;66269;51.466;7.260;2023-02-28T04:34:00;21.90;31.30
75648;DHT22;66269;51.466;7.260;2023-02-28T04:36:26;22.00;31.10
75648;DHT22;66269;51.466;7.260;2023-02-28T04:38:52;22.00;31.00
75648;DHT22;66269;51.466;7.260;2023-02-28T04:41:18;21.90;30.90
75648;DHT22;66269;51.466;7.260;2023-02-28T04:43:44;22.00;31.10
75648;DHT22;66269;51.466;7.260;2023-02-28T04:46:09;21.90;31.10
75648;DHT22;66269;51.466;7.260;2023-02-28T04:48:37;22.00;30.90
75648;DHT22;66269;51.466;7.260;2023-02-28T04:51:08;21.90;31.10
75648;DHT22;66269;51.466;7.260;2023-02-28T04:53:35;21.90;31.30
75648;DHT22;66269;51.466;7.260;2023-02-28T04:56:01;21.90;31.20
75648;DHT22;66269;51.466;7.260;2023-02-28T04:58:27;21.90;31.00
75648;DHT22;66269;51.466;7.260;2023-02-28T05:00:54;21.90;31.30
75648;DHT22;66269;51.466;7.260;2023-02-28T05:03:20;21.90;31.10
75648;DHT22;66269;51.466;7.260;2023-02-28T05:05:47;21.90;31.20
75648;DHT22;66269;51.466;7.260;2023-02-28T05:08:13;21.90;31.10
75648;DHT22;66269;51.466;7.260;2023-02-28T05:10:39;21.90;31.30
75648;DHT22;66269;51.466;7.260;2023-02-28T05:13:04;21.90;31.30
75648;DHT22;66269;51.466;7.260;2023-02-28T05:15:30;21.90;31.10
75648;DHT22;66269;51.466;7.260;2023-02-28T05:17:56;21.90;31.30
75648;DHT22;66269;51.466;7.260;2023-02-28T05:20:21;21.90;31.10
75648;DHT22;66269;51.466;7.260;2023-02-28T05:22:47;21.90;31.30
75648;DHT22;66269;51.466;7.260;2023-02-28T05:25:19;21.80;31.30
75648;DHT22;66269;51.466;7.260;2023-02-28T05:27:45;21.90;31.40
75648;DHT22;66269;51.466;7.260;2023-02-28T05:30:10;21.80;31.20
75648;DHT22;66269;51.466;7.260;2023-02-28T05:32:40;21.90;31.20
75648;DHT22;66269;51.466;7.260;2023-02-28T05:35:10;21.90;31.20
75648;DHT22;66269;51.466;7.260;2023-02-28T05:37:37;21.90;31.20
75648;DHT22;66269;51.466;7.260;2023-02-28T05:40:03;21.80;31.20
75648;DHT22;66269;51.466;7.260;2023-02-28T05:42:31;21.90;31.20
75648;DHT22;66269;51.466;7.260;2023-02-28T05:44:57;21.80;30.90
75648;DHT22;66269;51.466;7.260;2023-02-28T05:47:23;21.90;31.10
75648;DHT22;66269;51.466;7.260;2023-02-28T05:49:48;21.80;31.20
75648;DHT22;66269;51.466;7.260;2023-02-28T05:52:14;21.80;31.30
75648;DHT22;66269;51.466;7.260;2023-02-28T05:54:39;21.80;31.10
75648;DHT22;66269;51.466;7.260;2023-02-28T05:57:05;21.80;31.10
75648;DHT22;66269;51.466;7.260;2023-02-28T05:59:31;21.80;31.20
75648;DHT22;66269;51.466;7.260;2023-02-28T06:01:56;21.80;31.20
75648;DHT22;66269;51.466;7.260;2023-02-28T06:04:22;21.80;31.20
75648;DHT22;66269;51.466;7.260;2023-02-28T06:06:48;21.80;31.20
75648;DHT22;66269;51.466;7.260;2023-02-28T06:09:14;21.70;31.10
75648;DHT22;66269;51.466;7.260;2023-02-28T06:11:40;21.80;31.10
75648;DHT22;66269;51.466;7.260;2023-02-28T06:14:06;21.80;31.10
75648;DHT22;66269;51.466;7.260;2023-02-28T06:16:33;21.60;30.70
75648;DHT22;66269;51.466;7.260;2023-02-28T06:19:01;21.60;30.80
75648;DHT22;66269;51.466;7.260;2023-02-28T06:21:27;21.50;30.70
75648;DHT22;66269;51.466;7.260;2023-02-28T06:23:54;21.50;30.70
75648;DHT22;66269;51.466;7.260;2023-02-28T06:26:20;21.50;30.90
75648;DHT22;66269;51.466;7.260;2023-02-28T06:28:46;21.40;30.70
75648;DHT22;66269;51.466;7.260;2023-02-28T06:31:14;21.50;30.70
75648;DHT22;66269;51.466;7.260;2023-02-28T06:33:41;21.60;30.70
75648;DHT22;66269;51.466;7.260;2023-02-28T06:36:10;21.80;30.40
75648;DHT22;66269;51.466;7.260;2023-02-28T06:38:37;22.10;30.20
75648;DHT22;66269;51.466;7.260;2023-02-28T06:41:03;22.40;30.10
75648;DHT22;66269;51.466;7.260;2023-02-28T06:43:30;22.60;30.00
75648;DHT22;66269;51.466;7.260;2023-02-28T06:45:58;22.90;29.80
75648;DHT22;66269;51.466;7.260;2023-02-28T06:48:24;23.20;29.50
75648;DHT22;66269;51.466;7.260;2023-02-28T06:50:50;23.10;29.50
75648;DHT22;66269;51.466;7.260;2023-02-28T06:53:16;22.90;29.40
75648;DHT22;66269;51.466;7.260;2023-02-28T06:55:41;22.80;29.70
75648;DHT22;66269;51.466;7.260;2023-02-28T06:58:07;22.70;29.60
75648;DHT22;66269;51.466;7.260;2023-02-28T07:00:45;22.70;29.70
75648;DHT22;66269;51.466;7.260;2023-02-28T07:03:12;22.70;29.70
75648;DHT22;66269;51.466;7.260;2023-02-28T07:05:39;22.70;29.60
75648;DHT22;66269;51.466;7.260;2023-02-28T07:08:05;22.70;29.80
75648;DHT22;66269;51.466;7.260;2023-02-28T07:10:34;22.60;30.00
75648;DHT22;66269;51.466;7.260;2023-02-28T07:13:03;22.60;29.90
75648;DHT22;66269;51.466;7.260;2023-02-28T07:15:29;22.50;31.10
75648;DHT22;66269;51.466;7.260;2023-02-28T07:17:55;22.60;30.00
75648;DHT22;66269;51.466;7.260;2023-02-28T07:20:22;22.60;29.60
75648;DHT22;66269;51.466;7.260;2023-02-28T07:22:48;22.70;30.30
75648;DHT22;66269;51.466;7.260;2023-02-28T07:25:21;22.60;30.60
75648;DHT22;66269;51.466;7.260;2023-02-28T07:27:46;22.60;30.80
75648;DHT22;66269;51.466;7.260;2023-02-28T07:30:12;22.70;31.10
75648;DHT22;66269;51.466;7.260;2023-02-28T07:32:38;22.70;30.90
75648;DHT22;66269;51.466;7.260;2023-02-28T07:35:04;22.70;30.70
75648;DHT22;66269;51.466;7.260;2023-02-28T07:37:30;22.80;30.60
75648;DHT22;66269;51.466;7.260;2023-02-28T07:39:56;22.70;30.50
75648;DHT22;66269;51.466;7.260;2023-02-28T07:42:22;22.70;30.10
75648;DHT22;66269;51.466;7.260;2023-02-28T07:44:48;22.70;30.20
75648;DHT22;66269;51.466;7.260;2023-02-28T07:47:13;22.70;30.10
75648;DHT22;66269;51.466;7.260;2023-02-28T07:49:39;22.70;30.00
75648;DHT22;66269;51.466;7.260;2023-02-28T07:52:06;22.70;29.80
75648;DHT22;66269;51.466;7.260;2023-02-28T07:54:32;22.60;29.90
75648;DHT22;66269;51.466;7.260;2023-02-28T07:56:58;22.60;29.90
75648;DHT22;66269;51.466;7.260;2023-02-28T07:59:24;22.70;29.40
75648;DHT22;66269;51.466;7.260;2023-02-28T08:01:50;22.60;29.50
75648;DHT22;66269;51.466;7.260;2023-02-28T08:04:17;22.60;29.60
75648;DHT22;66269;51.466;7.260;2023-02-28T08:06:42;22.60;29.60
75648;DHT22;66269;51.466;7.260;2023-02-28T08:09:08;22.60;29.60
75648;DHT22;66269;51.466;7.260;2023-02-28T08:11:34;22.70;29.60
75648;DHT22;66269;51.466;7.260;2023-02-28T08:14:00;22.60;29.40
75648;DHT22;66269;51.466;7.260;2023-02-28T08:16:25;22.70;29.60
75648;DHT22;66269;51.466;7.260;2023-02-28T08:18:52;22.50;29.40
75648;DHT22;66269;51.466;7.260;2023-02-28T08:21:18;22.50;29.10
75648;DHT22;66269;51.466;7.260;2023-02-28T08:23:46;22.60;29.30
75648;DHT22;66269;51.466;7.260;2023-02-28T08:26:12;22.60;29.30
75648;DHT22;66269;51.466;7.260;2023-02-28T08:28:38;22.60;29.10
75648;DHT22;66269;51.466;7.260;2023-02-28T08:31:08;22.60;29.10
75648;DHT22;66269;51.466;7.260;2023-02-28T08:33:34;22.50;29.10
75648;DHT22;66269;51.466;7.260;2023-02-28T08:36:00;22.50;29.00
75648;DHT22;66269;51.466;7.260;2023-02-28T08:38:25;22.60;29.00
75648;DHT22;66269;51.466;7.260;2023-02-28T08:40:58;22.60;28.90
75648;DHT22;66269;51.466;7.260;2023-02-28T08:43:24;22.60;29.20
75648;DHT22;66269;51.466;7.260;2023-02-28T08:45:55;22.70;29.10
75648;DHT22;66269;51.466;7.260;2023-02-28T08:48:23;22.60;29.20
75648;DHT22;66269;51.466;7.260;2023-02-28T08:51:15;22.60;29.60
75648;DHT22;66269;51.466;7.260;2023-02-28T08:53:44;22.70;29.60
75648;DHT22;66269;51.466;7.260;2023-02-28T08:56:12;22.70;29.30
75648;DHT22;66269;51.466;7.260;2023-02-28T08:58:38;22.70;29.60
75648;DHT22;66269;51.466;7.260;2023-02-28T09:01:32;22.70;29.50
75648;DHT22;66269;51.466;7.260;2023-02-28T09:03:57;22.70;29.40
75648;DHT22;66269;51.466;7.260;2023-02-28T09:06:25;22.80;29.10
75648;DHT22;66269;51.466;7.260;2023-02-28T09:08:52;22.80;29.30
75648;DHT22;66269;51.466;7.260;2023-02-28T09:11:18;22.80;29.30
75648;DHT22;66269;51.466;7.260;2023-02-28T09:13:45;22.80;29.20
75648;DHT22;66269;51.466;7.260;2023-02-28T09:16:14;22.80;29.30
75648;DHT22;66269;51.466;7.260;2023-02-28T09:18:41;22.80;29.40
75648;DHT22;66269;51.466;7.260;2023-02-28T09:21:09;22.80;29.30
75648;DHT22;66269;51.466;7.260;2023-02-28T09:23:35;22.90;29.40
75648;DHT22;66269;51.466;7.260;2023-02-28T09:26:03;22.90;29.30
75648;DHT22;66269;51.466;7.260;2023-02-28T09:28:29;23.00;29.30
75648;DHT22;66269;51.466;7.260;2023-02-28T09:30:55;22.90;29.20
75648;DHT22;66269;51.466;7.260;2023-02-28T09:33:21;22.90;29.40
75648;DHT22;66269;51.466;7.260;2023-02-28T09:35:51;22.90;29.40
75648;DHT22;66269;51.466;7.260;2023-02-28T09:38:22;23.00;29.10
75648;DHT22;66269;51.466;7.260;2023-02-28T09:43:22;23.00;29.10
75648;DHT22;66269;51.466;7.260;2023-02-28T09:45:55;23.00;29.20
75648;DHT22;66269;51.466;7.260;2023-02-28T09:48:31;23.00;29.10
75648;DHT22;66269;51.466;7.260;2023-02-28T09:51:09;23.00;29.30
75648;DHT22;66269;51.466;7.260;2023-02-28T09:53:38;23.00;29.00
75648;DHT22;66269;51.466;7.260;2023-02-28T09:56:09;23.00;29.00
75648;DHT22;66269;51.466;7.260;2023-02-28T09:59:01;23.00;29.00
75648;DHT22;66269;51.466;7.260;2023-02-28T10:01:51;23.00;29.00
75648;DHT22;66269;51.466;7.260;2023-02-28T10:06:51;23.10;28.70
75648;DHT22;66269;51.466;7.260;2023-02-28T10:09:30;23.20;28.80
75648;DHT22;66269;51.466;7.260;2023-02-28T10:12:02;23.10;28.60
75648;DHT22;66269;51.466;7.260;2023-02-28T10:14:29;23.20;28.50
75648;DHT22;66269;51.466;7.260;2023-02-28T10:17:02;23.20;28.60
75648;DHT22;66269;51.466;7.260;2023-02-28T10:22:31;23.20;28.90
75648;DHT22;66269;51.466;7.260;2023-02-28T10:24:59;23.10;28.90
75648;DHT22;66269;51.466;7.260;2023-02-28T10:27:30;23.10;28.90
75648;DHT22;66269;51.466;7.260;2023-02-28T10:29:58;23.20;28.60
75648;DHT22;66269;51.466;7.260;2023-02-28T10:32:29;23.20;29.20
75648;DHT22;66269;51.466;7.260;2023-02-28T10:37:58;23.20;28.40
75648;DHT22;66269;51.466;7.260;2023-02-28T10:40:26;23.10;28.60
75648;DHT22;66269;51.466;7.260;2023-02-28T10:45:38;23.10;28.60
75648;DHT22;66269;51.466;7.260;2023-02-28T10:48:37;23.20;28.00
75648;DHT22;66269;51.466;7.260;2023-02-28T10:51:05;23.20;28.20
75648;DHT22;66269;51.466;7.260;2023-02-28T10:53:45;23.20;28.10
75648;DHT22;66269;51.466;7.260;2023-02-28T10:58:52;23.20;27.90
75648;DHT22;66269;51.466;7.260;2023-02-28T11:03:55;23.20;27.80
75648;DHT22;66269;51.466;7.260;2023-02-28T11:06:33;23.30;27.70
75648;DHT22;66269;51.466;7.260;2023-02-28T11:09:03;23.30;27.70
75648;DHT22;66269;51.466;7.260;2023-02-28T11:11:31;23.20;27.60
75648;DHT22;66269;51.466;7.260;2023-02-28T11:14:21;23.30;27.80
75648;DHT22;66269;51.466;7.260;2023-02-28T11:16:49;23.20;27.60
75648;DHT22;66269;51.466;7.260;2023-02-28T11:19:32;23.20;28.00
75648;DHT22;66269;51.466;7.260;2023-02-28T11:22:02;23.20;27.50
75648;DHT22;66269;51.466;7.260;2023-02-28T11:24:35;23.30;27.30
75648;DHT22;66269;51.466;7.260;2023-02-28T11:27:02;23.30;27.40
75648;DHT22;66269;51.466;7.260;2023-02-28T11:29:32;23.30;28.00
75648;DHT22;66269;51.466;7.260;2023-02-28T11:34:36;23.20;27.40
75648;DHT22;66269;51.466;7.260;2023-02-28T11:37:04;23.30;27.00
75648;DHT22;66269;51.466;7.260;2023-02-28T11:39:32;23.30;27.30
75648;DHT22;66269;51.466;7.260;2023-02-28T11:47:58;23.40;27.30
75648;DHT22;66269;51.466;7.260;2023-02-28T11:56:16;23.60;27.50
75648;DHT22;66269;51.466;7.260;2023-02-28T11:59:03;23.50;27.50
75648;DHT22;66269;51.466;7.260;2023-02-28T12:13:42;23.60;27.60
75648;DHT22;66269;51.466;7.260;2023-02-28T12:21:58;23.50;27.50
75648;DHT22;66269;51.466;7.260;2023-02-28T12:27:13;23.50;27.00
75648;DHT22;66269;51.466;7.260;2023-02-28T12:30:02;23.60;27.20
75648;DHT22;66269;51.466;7.260;2023-02-28T12:32:55;23.50;26.80
75648;DHT22;66269;51.466;7.260;2023-02-28T12:35:26;23.50;26.90
75648;DHT22;66269;51.466;7.260;2023-02-28T12:38:01;23.60;26.70
75648;DHT22;66269;51.466;7.260;2023-02-28T12:40:41;23.60;27.50
75648;DHT22;66269;51.466;7.260;2023-02-28T12:43:08;23.60;26.80
75648;DHT22;66269;51.466;7.260;2023-02-28T12:48:18;23.60;27.40
75648;DHT22;66269;51.466;7.260;2023-02-28T12:50:45;23.60;26.90
75648;DHT22;66269;51.466;7.260;2023-02-28T12:56:17;23.60;26.70
75648;DHT22;66269;51.466;7.260;2023-02-28T12:58:51;23.60;26.40
75648;DHT22;66269;51.466;7.260;2023-02-28T13:07:17;23.70;25.90
75648;DHT22;66269;51.466;7.260;2023-02-28T13:09:56;23.70;25.90
75648;DHT22;66269;51.466;7.260;2023-02-28T13:12:23;23.70;26.10
75648;DHT22;66269;51.466;7.260;2023-02-28T13:14:50;23.80;25.80
75648;DHT22;66269;51.466;7.260;2023-02-28T13:17:20;23.70;25.90
75648;DHT22;66269;51.466;7.260;2023-02-28T13:19:57;23.70;25.60
75648;DHT22;66269;51.466;7.260;2023-02-28T13:25:01;23.80;25.80
75648;DHT22;66269;51.466;7.260;2023-02-28T13:27:36;23.80;25.60
75648;DHT22;66269;51.466;7.260;2023-02-28T13:33:34;23.80;25.70
75648;DHT22;66269;51.466;7.260;2023-02-28T13:38:51;24.00;25.80
75648;DHT22;66269;51.466;7.260;2023-02-28T13:51:49;24.00;26.50
75648;DHT22;66269;51.466;7.260;2023-02-28T14:00:23;24.00;26.10
75648;DHT22;66269;51.466;7.260;2023-02-28T14:03:17;24.10;25.80
75648;DHT22;66269;51.466;7.260;2023-02-28T14:05:44;24.00;26.00
75648;DHT22;66269;51.466;7.260;2023-02-28T14:08:22;24.00;25.80
75648;DHT22;66269;51.466;7.260;2023-02-28T14:11:04;24.10;25.80
75648;DHT22;66269;51.466;7.260;2023-02-28T14:13:45;24.10;26.10
75648;DHT22;66269;51.466;7.260;2023-02-28T14:16:15;24.20;26.00
75648;DHT22;66269;51.466;7.260;2023-02-28T14:19:12;24.20;25.80
75648;DHT22;66269;51.466;7.260;2023-02-28T14:22:08;24.20;25.90
75648;DHT22;66269;51.466;7.260;2023-02-28T14:27:48;24.10;25.80
75648;DHT22;66269;51.466;7.260;2023-02-28T14:33:23;24.30;25.80
75648;DHT22;66269;51.466;7.260;2023-02-28T14:38:33;24.30;25.80
75648;DHT22;66269;51.466;7.260;2023-02-28T14:41:04;24.30;25.90
75648;DHT22;66269;51.466;7.260;2023-02-28T14:43:31;24.30;25.60
75648;DHT22;66269;51.466;7.260;2023-02-28T14:46:00;24.40;25.80
75648;DHT22;66269;51.466;7.260;2023-02-28T14:48:26;24.40;25.70
75648;DHT22;66269;51.466;7.260;2023-02-28T14:50:55;24.40;25.80
75648;DHT22;66269;51.466;7.260;2023-02-28T14:53:23;24.50;25.90
75648;DHT22;66269;51.466;7.260;2023-02-28T14:55:50;24.40;25.70
75648;DHT22;66269;51.466;7.260;2023-02-28T14:58:32;24.40;25.60
75648;DHT22;66269;51.466;7.260;2023-02-28T15:01:01;24.50;25.80
75648;DHT22;66269;51.466;7.260;2023-02-28T15:03:31;24.50;25.50
75648;DHT22;66269;51.466;7.260;2023-02-28T15:06:01;24.50;25.60
75648;DHT22;66269;51.466;7.260;2023-02-28T15:08:28;24.50;25.70
75648;DHT22;66269;51.466;7.260;2023-02-28T15:10:58;24.50;25.90
75648;DHT22;66269;51.466;7.260;2023-02-28T15:13:47;24.50;25.80
75648;DHT22;66269;51.466;7.260;2023-02-28T15:16:31;24.60;25.70
75648;DHT22;66269;51.466;7.260;2023-02-28T15:19:01;24.60;25.40
75648;DHT22;66269;51.466;7.260;2023-02-28T15:21:29;24.60;25.50
75648;DHT22;66269;51.466;7.260;2023-02-28T15:23:58;24.60;25.70
75648;DHT22;66269;51.466;7.260;2023-02-28T15:26:29;24.60;25.80
75648;DHT22;66269;51.466;7.260;2023-02-28T15:29:01;24.70;25.50
75648;DHT22;66269;51.466;7.260;2023-02-28T15:31:32;24.60;25.40
75648;DHT22;66269;51.466;7.260;2023-02-28T15:34:04;24.70;25.40
75648;DHT22;66269;51.466;7.260;2023-02-28T15:36:32;24.70;25.80
75648;DHT22;66269;51.466;7.260;2023-02-28T15:38:59;24.70;25.80
75648;DHT22;66269;51.466;7.260;2023-02-28T15:41:30;24.80;25.40
75648;DHT22;66269;51.466;7.260;2023-02-28T15:44:25;24.80;25.50
75648;DHT22;66269;51.466;7.260;2023-02-28T15:47:06;24.80;25.30
75648;DHT22;66269;51.466;7.260;2023-02-28T15:49:44;24.80;25.40
75648;DHT22;66269;51.466;7.260;2023-02-28T15:52:17;24.80;26.20
75648;DHT22;66269;51.466;7.260;2023-02-28T15:54:44;24.70;25.60
75648;DHT22;66269;51.466;7.260;2023-02-28T15:57:21;24.70;25.50
75648;DHT22;66269;51.466;7.260;2023-02-28T15:59:57;24.70;25.80
75648;DHT22;66269;51.466;7.260;2023-02-28T16:02:35;24.70;25.50
75648;DHT22;66269;51.466;7.260;2023-02-28T16:07:41;24.60;25.80
75648;DHT22;66269;51.466;7.260;2023-02-28T16:10:08;24.60;25.70
75648;DHT22;66269;51.466;7.260;2023-02-28T16:12:36;24.60;25.70
75648;DHT22;66269;51.466;7.260;2023-02-28T16:15:26;24.50;25.70
75648;DHT22;66269;51.466;7.260;2023-02-28T16:17:53;24.50;26.10
75648;DHT22;66269;51.466;7.260;2023-02-28T16:20:27;24.50;25.90
75648;DHT22;66269;51.466;7.260;2023-02-28T16:22:53;24.50;25.80
75648;DHT22;66269;51.466;7.260;2023-02-28T16:25:22;24.50;25.90
75648;DHT22;66269;51.466;7.260;2023-02-28T16:27:50;24.40;25.90
75648;DHT22;66269;51.466;7.260;2023-02-28T16:30:24;24.40;26.20
75648;DHT22;66269;51.466;7.260;2023-02-28T16:32:51;24.40;26.50
75648;DHT22;66269;51.466;7.260;2023-02-28T16:35:18;24.40;26.00
75648;DHT22;66269;51.466;7.260;2023-02-28T16:37:44;24.40;26.50
75648;DHT22;66269;51.466;7.260;2023-02-28T16:40:24;24.30;27.40
75648;DHT22;66269;51.466;7.260;2023-02-28T16:42:53;24.20;27.60
75648;DHT22;66269;51.466;7.260;2023-02-28T16:45:27;24.20;28.20
75648;DHT22;66269;51.466;7.260;2023-02-28T16:47:54;24.20;27.20
75648;DHT22;66269;51.466;7.260;2023-02-28T16:50:23;24.20;26.90
75648;DHT22;66269;51.466;7.260;2023-02-28T16:52:50;24.00;27.10
75648;DHT22;66269;51.466;7.260;2023-02-28T16:55:18;23.80;27.00
75648;DHT22;66269;51.466;7.260;2023-02-28T16:57:53;23.80;26.40
75648;DHT22;66269;51.466;7.260;2023-02-28T17:00:19;23.70;26.70
75648;DHT22;66269;51.466;7.260;2023-02-28T17:02:45;23.70;26.50
75648;DHT22;66269;51.466;7.260;2023-02-28T17:05:11;23.70;26.80
75648;DHT22;66269;51.466;7.260;2023-02-28T17:07:37;23.70;26.60
75648;DHT22;66269;51.466;7.260;2023-02-28T17:10:08;23.70;26.60
75648;DHT22;66269;51.466;7.260;2023-02-28T17:12:35;23.70;26.80
75648;DHT22;66269;51.466;7.260;2023-02-28T17:15:01;23.80;26.90
75648;DHT22;66269;51.466;7.260;2023-02-28T17:17:26;23.80;27.20
75648;DHT22;66269;51.466;7.260;2023-02-28T17:19:52;23.80;27.10
75648;DHT22;66269;51.466;7.260;2023-02-28T17:22:18;23.80;26.90
75648;DHT22;66269;51.466;7.260;2023-02-28T17:24:43;23.80;26.70
75648;DHT22;66269;51.466;7.260;2023-02-28T17:27:12;23.90;26.80
75648;DHT22;66269;51.466;7.260;2023-02-28T17:29:38;23.80;27.20
75648;DHT22;66269;51.466;7.260;2023-02-28T17:32:04;23.80;26.80
75648;DHT22;66269;51.466;7.260;2023-02-28T17:34:29;23.80;26.90
75648;DHT22;66269;51.466;7.260;2023-02-28T17:36:55;23.70;26.90
75648;DHT22;66269;51.466;7.260;2023-02-28T17:39:22;23.80;26.90
75648;DHT22;66269;51.466;7.260;2023-02-28T17:41:51;23.80;27.10
75648;DHT22;66269;51.466;7.260;2023-02-28T17:44:18;23.60;27.30
75648;DHT22;66269;51.466;7.260;2023-02-28T17:46:45;23.70;26.70
75648;DHT22;66269;51.466;7.260;2023-02-28T17:49:10;23.70;26.80